createdAt,value
2018-11-29T00:00:54.170Z,1007.83
2018-11-29T00:01:54.151Z,1007.83
2018-11-29T00:02:54.131Z,1007.84
2018-11-29T00:03:54.113Z,1007.8
2018-11-29T00:04:54.093Z,1007.77
2018-11-29T00:05:54.073Z,1007.8
2018-11-29T00:06:54.056Z,1007.8
2018-11-29T00:07:54.034Z,1007.82
2018-11-29T00:08:54.015Z,1007.91
2018-11-29T00:09:53.997Z,1007.88
2018-11-29T00:10:53.978Z,1007.94
2018-11-29T00:11:53.957Z,1007.84
2018-11-29T00:12:53.937Z,1007.89
2018-11-29T00:13:53.918Z,1007.86
2018-11-29T00:14:53.900Z,1007.84
2018-11-29T00:15:53.895Z,1007.76
2018-11-29T00:16:53.862Z,1007.68
2018-11-29T00:17:53.843Z,1007.76
2018-11-29T00:18:53.821Z,1007.74
2018-11-29T00:19:53.800Z,1007.78
2018-11-29T00:20:53.784Z,1007.76
2018-11-29T00:21:53.776Z,1007.75
2018-11-29T00:22:53.742Z,1007.81
2018-11-29T00:23:53.724Z,1007.74
2018-11-29T00:24:53.704Z,1007.84
2018-11-29T00:25:53.685Z,1007.79
2018-11-29T00:26:53.665Z,1007.73
2018-11-29T00:27:53.645Z,1007.69
2018-11-29T00:28:53.626Z,1007.6
2018-11-29T00:29:53.611Z,1007.6
2018-11-29T00:30:53.587Z,1007.67
2018-11-29T00:31:53.568Z,1007.71
2018-11-29T00:32:53.552Z,1007.73
2018-11-29T00:33:53.527Z,1007.71
2018-11-29T00:34:53.511Z,1007.84
2018-11-29T00:35:53.494Z,1007.77
2018-11-29T00:36:53.471Z,1007.84
2018-11-29T00:37:53.450Z,1007.87
2018-11-29T00:38:53.440Z,1007.78
2018-11-29T00:39:53.415Z,1007.87
2018-11-29T00:40:53.393Z,1007.83
2018-11-29T00:41:53.372Z,1007.81
2018-11-29T00:42:53.355Z,1007.78
2018-11-29T00:43:53.335Z,1007.82
2018-11-29T00:44:53.315Z,1007.83
2018-11-29T00:45:53.296Z,1007.78
2018-11-29T00:46:53.281Z,1007.87
2018-11-29T00:47:53.260Z,1007.92
2018-11-29T00:48:53.239Z,1007.86
2018-11-29T00:49:53.219Z,1007.91
2018-11-29T00:50:53.200Z,1007.95
2018-11-29T00:51:53.181Z,1007.96
2018-11-29T00:52:53.160Z,1007.88
2018-11-29T00:53:53.141Z,1007.9
2018-11-29T00:54:53.124Z,1007.88
2018-11-29T00:55:53.104Z,1007.84
2018-11-29T00:56:53.090Z,1007.84
2018-11-29T00:57:53.067Z,1007.8
2018-11-29T00:58:53.046Z,1007.86
2018-11-29T00:59:53.028Z,1007.79
2018-11-29T01:00:53.008Z,1007.78
2018-11-29T01:01:52.988Z,1007.76
2018-11-29T01:02:52.969Z,1007.71
2018-11-29T01:03:52.951Z,1007.7
2018-11-29T01:04:52.932Z,1007.69
2018-11-29T01:05:52.913Z,1007.73
2018-11-29T01:06:52.893Z,1007.75
2018-11-29T01:07:52.874Z,1007.72
2018-11-29T01:08:52.855Z,1007.77
2018-11-29T01:09:52.835Z,1007.75
2018-11-29T01:10:52.818Z,1007.73
2018-11-29T01:11:52.799Z,1007.74
2018-11-29T01:12:52.778Z,1007.76
2018-11-29T01:13:52.758Z,1007.74
2018-11-29T01:14:52.739Z,1007.77
2018-11-29T01:15:52.721Z,1007.75
2018-11-29T01:16:52.703Z,1007.78
2018-11-29T01:17:52.885Z,1007.75
2018-11-29T01:18:52.665Z,1007.78
2018-11-29T01:19:52.649Z,1007.81
2018-11-29T01:20:52.627Z,1007.8
2018-11-29T01:21:52.609Z,1007.79
2018-11-29T01:22:52.588Z,1007.8
2018-11-29T01:23:52.571Z,1007.77
2018-11-29T01:24:52.549Z,1007.75
2018-11-29T01:25:52.536Z,1007.71
2018-11-29T01:26:52.511Z,1007.75
2018-11-29T01:27:52.493Z,1007.77
2018-11-29T01:28:52.474Z,1007.77
2018-11-29T01:29:52.454Z,1007.8
2018-11-29T01:30:52.436Z,1007.81
2018-11-29T01:31:52.417Z,1007.84
2018-11-29T01:32:52.397Z,1007.84
2018-11-29T01:33:52.382Z,1007.85
2018-11-29T01:34:52.360Z,1007.84
2018-11-29T01:35:52.342Z,1007.84
2018-11-29T01:36:52.323Z,1007.84
2018-11-29T01:37:52.305Z,1007.86
2018-11-29T01:38:52.285Z,1007.84
2018-11-29T01:39:52.267Z,1007.87
2018-11-29T01:40:52.249Z,1007.84
2018-11-29T01:41:52.229Z,1007.79
2018-11-29T01:42:52.208Z,1007.79
2018-11-29T01:43:52.191Z,1007.72
2018-11-29T01:44:52.172Z,1007.74
2018-11-29T01:45:52.153Z,1007.7
2018-11-29T01:46:52.135Z,1007.68
2018-11-29T01:47:52.117Z,1007.66
2018-11-29T01:48:52.098Z,1007.66
2018-11-29T01:49:52.080Z,1007.65
2018-11-29T01:50:52.059Z,1007.64
2018-11-29T01:51:52.045Z,1007.6
2018-11-29T01:52:52.021Z,1007.58
2018-11-29T01:53:52.000Z,1007.54
2018-11-29T01:54:51.984Z,1007.54
2018-11-29T01:55:51.969Z,1007.56
2018-11-29T01:56:51.947Z,1007.56
2018-11-29T01:57:51.927Z,1007.56
2018-11-29T01:58:51.908Z,1007.6
2018-11-29T01:59:51.890Z,1007.53
2018-11-29T02:00:51.870Z,1007.57
2018-11-29T02:01:51.852Z,1007.52
2018-11-29T02:02:51.855Z,1007.53
2018-11-29T02:03:51.817Z,1007.53
2018-11-29T02:04:51.800Z,1007.55
2018-11-29T02:05:51.778Z,1007.53
2018-11-29T02:06:51.763Z,1007.57
2018-11-29T02:07:51.752Z,1007.54
2018-11-29T02:08:51.721Z,1007.55
2018-11-29T02:09:51.705Z,1007.47
2018-11-29T02:10:51.683Z,1007.52
2018-11-29T02:11:51.665Z,1007.49
2018-11-29T02:12:51.646Z,1007.48
2018-11-29T02:13:51.628Z,1007.51
2018-11-29T02:14:51.610Z,1007.5
2018-11-29T02:15:51.591Z,1007.51
2018-11-29T02:16:51.571Z,1007.52
2018-11-29T02:17:51.553Z,1007.49
2018-11-29T02:18:51.536Z,1007.53
2018-11-29T02:19:51.517Z,1007.51
2018-11-29T02:20:51.497Z,1007.48
2018-11-29T02:21:51.478Z,1007.5
2018-11-29T02:22:51.459Z,1007.52
2018-11-29T02:23:51.443Z,1007.55
2018-11-29T02:24:51.422Z,1007.57
2018-11-29T02:25:51.404Z,1007.54
2018-11-29T02:26:51.385Z,1007.53
2018-11-29T02:27:51.366Z,1007.5
2018-11-29T02:28:51.347Z,1007.52
2018-11-29T02:29:51.328Z,1007.54
2018-11-29T02:30:51.311Z,1007.49
2018-11-29T02:31:51.293Z,1007.53
2018-11-29T02:32:51.272Z,1007.56
2018-11-29T02:33:51.256Z,1007.53
2018-11-29T02:34:51.239Z,1007.55
2018-11-29T02:35:51.219Z,1007.52
2018-11-29T02:36:51.201Z,1007.45
2018-11-29T02:37:51.178Z,1007.46
2018-11-29T02:38:51.163Z,1007.45
2018-11-29T02:39:51.144Z,1007.42
2018-11-29T02:40:51.125Z,1007.4
2018-11-29T02:41:51.105Z,1007.42
2018-11-29T02:42:51.087Z,1007.32
2018-11-29T02:43:51.068Z,1007.36
2018-11-29T02:44:51.049Z,1007.4
2018-11-29T02:45:51.061Z,1007.39
2018-11-29T02:46:51.013Z,1007.4
2018-11-29T02:47:50.997Z,1007.35
2018-11-29T02:48:50.974Z,1007.38
2018-11-29T02:49:50.959Z,1007.36
2018-11-29T02:50:50.945Z,1007.42
2018-11-29T02:51:50.920Z,1007.37
2018-11-29T02:52:50.901Z,1007.39
2018-11-29T02:53:50.881Z,1007.37
2018-11-29T02:54:50.894Z,1007.41
2018-11-29T02:55:50.845Z,1007.42
2018-11-29T02:56:50.839Z,1007.42
2018-11-29T02:57:50.809Z,1007.36
2018-11-29T02:58:50.794Z,1007.37
2018-11-29T02:59:50.769Z,1007.35
2018-11-29T03:00:50.750Z,1007.4
2018-11-29T03:01:50.736Z,1007.45
2018-11-29T03:02:50.713Z,1007.41
2018-11-29T03:03:50.697Z,1007.44
2018-11-29T03:04:50.677Z,1007.38
2018-11-29T03:05:50.658Z,1007.44
2018-11-29T03:06:50.640Z,1007.47
2018-11-29T03:07:50.624Z,1007.47
2018-11-29T03:08:50.612Z,1007.47
2018-11-29T03:09:50.606Z,1007.42
2018-11-29T03:10:50.569Z,1007.38
2018-11-29T03:11:50.547Z,1007.45
2018-11-29T03:12:50.537Z,1007.47
2018-11-29T03:13:50.543Z,1007.49
2018-11-29T03:14:50.544Z,1007.42
2018-11-29T03:15:50.478Z,1007.5
2018-11-29T03:16:50.474Z,1007.44
2018-11-29T03:17:50.638Z,1007.44
2018-11-29T03:18:50.445Z,1007.42
2018-11-29T03:19:50.399Z,1007.39
2018-11-29T03:20:50.382Z,1007.45
2018-11-29T03:21:50.365Z,1007.43
2018-11-29T03:22:50.347Z,1007.39
2018-11-29T03:23:50.326Z,1007.45
2018-11-29T03:24:50.310Z,1007.4
2018-11-29T03:25:50.289Z,1007.36
2018-11-29T03:26:50.277Z,1007.33
2018-11-29T03:27:50.256Z,1007.42
2018-11-29T03:28:50.234Z,1007.38
2018-11-29T03:29:50.213Z,1007.44
2018-11-29T03:30:50.198Z,1007.39
2018-11-29T03:31:50.180Z,1007.4
2018-11-29T03:32:50.168Z,1007.36
2018-11-29T03:33:50.141Z,1007.39
2018-11-29T03:34:50.122Z,1007.42
2018-11-29T03:35:50.102Z,1007.38
2018-11-29T03:36:50.089Z,1007.44
2018-11-29T03:37:50.072Z,1007.4
2018-11-29T03:38:50.049Z,1007.36
2018-11-29T03:39:50.030Z,1007.33
2018-11-29T03:40:50.011Z,1007.3
2018-11-29T03:41:49.992Z,1007.34
2018-11-29T03:42:49.974Z,1007.34
2018-11-29T03:43:49.955Z,1007.28
2018-11-29T03:44:49.944Z,1007.34
2018-11-29T03:45:49.919Z,1007.34
2018-11-29T03:46:49.898Z,1007.3
2018-11-29T03:47:49.883Z,1007.34
2018-11-29T03:48:49.863Z,1007.32
2018-11-29T03:49:49.843Z,1007.28
2018-11-29T03:50:49.827Z,1007.31
2018-11-29T03:51:49.806Z,1007.29
2018-11-29T03:52:49.788Z,1007.29
2018-11-29T03:53:49.770Z,1007.27
2018-11-29T03:54:49.752Z,1007.28
2018-11-29T03:55:49.732Z,1007.33
2018-11-29T03:56:49.716Z,1007.32
2018-11-29T03:57:49.696Z,1007.34
2018-11-29T03:58:49.683Z,1007.41
2018-11-29T03:59:49.659Z,1007.43
2018-11-29T04:00:49.640Z,1007.45
2018-11-29T04:01:49.630Z,1007.44
2018-11-29T04:02:49.604Z,1007.43
2018-11-29T04:03:49.584Z,1007.37
2018-11-29T04:04:49.568Z,1007.37
2018-11-29T04:05:49.547Z,1007.32
2018-11-29T04:06:49.528Z,1007.32
2018-11-29T04:07:49.511Z,1007.38
2018-11-29T04:08:49.492Z,1007.25
2018-11-29T04:09:49.518Z,1007.3
2018-11-29T04:10:49.458Z,1007.26
2018-11-29T04:11:49.441Z,1007.26
2018-11-29T04:12:49.418Z,1007.24
2018-11-29T04:13:49.402Z,1007.27
2018-11-29T04:14:49.381Z,1007.21
2018-11-29T04:15:49.367Z,1007.19
2018-11-29T04:16:49.342Z,1007.23
2018-11-29T04:17:49.331Z,1007.19
2018-11-29T04:18:49.315Z,1007.21
2018-11-29T04:19:49.288Z,1007.22
2018-11-29T04:20:49.273Z,1007.22
2018-11-29T04:21:49.252Z,1007.16
2018-11-29T04:22:49.246Z,1007.17
2018-11-29T04:23:49.213Z,1007.22
2018-11-29T04:24:49.196Z,1007.21
2018-11-29T04:25:49.179Z,1007.15
2018-11-29T04:26:49.161Z,1007.17
2018-11-29T04:27:49.139Z,1007.21
2018-11-29T04:28:49.124Z,1007.17
2018-11-29T04:29:49.105Z,1007.19
2018-11-29T04:30:49.087Z,1007.13
2018-11-29T04:31:49.066Z,1007.16
2018-11-29T04:32:49.050Z,1007.13
2018-11-29T04:33:49.030Z,1007.16
2018-11-29T04:34:49.013Z,1007.15
2018-11-29T04:35:48.998Z,1007.16
2018-11-29T04:36:48.975Z,1007.2
2018-11-29T04:37:48.961Z,1007.21
2018-11-29T04:38:48.937Z,1007.23
2018-11-29T04:39:48.919Z,1007.26
2018-11-29T04:40:48.902Z,1007.2
2018-11-29T04:41:48.882Z,1007.2
2018-11-29T04:42:48.865Z,1007.2
2018-11-29T04:43:48.844Z,1007.2
2018-11-29T04:44:48.829Z,1007.19
2018-11-29T04:45:48.811Z,1007.15
2018-11-29T04:46:48.791Z,1007.21
2018-11-29T04:47:48.770Z,1007.21
2018-11-29T04:48:48.755Z,1007.2
2018-11-29T04:49:48.737Z,1007.22
2018-11-29T04:50:49.840Z,1007.18
2018-11-29T04:51:48.701Z,1007.17
2018-11-29T04:52:48.683Z,1007.16
2018-11-29T04:53:48.665Z,1007.08
2018-11-29T04:54:48.643Z,1007.06
2018-11-29T04:55:48.648Z,1007.09
2018-11-29T04:56:48.607Z,1007.05
2018-11-29T04:57:48.587Z,1007.05
2018-11-29T04:58:48.569Z,1007.01
2018-11-29T04:59:48.550Z,1007.04
2018-11-29T05:00:48.533Z,1006.97
2018-11-29T05:01:48.512Z,1007.06
2018-11-29T05:02:48.495Z,1007.06
2018-11-29T05:03:48.477Z,1007.03
2018-11-29T05:04:48.456Z,1007.04
2018-11-29T05:05:48.439Z,1007.08
2018-11-29T05:06:48.421Z,1007.06
2018-11-29T05:07:48.409Z,1007.08
2018-11-29T05:08:48.383Z,1007.04
2018-11-29T05:09:48.363Z,1007.06
2018-11-29T05:10:48.342Z,1007.05
2018-11-29T05:11:48.350Z,1007.02
2018-11-29T05:12:48.307Z,1007
2018-11-29T05:13:48.289Z,1007.01
2018-11-29T05:14:48.272Z,1007.03
2018-11-29T05:15:48.251Z,1006.99
2018-11-29T05:16:48.237Z,1006.95
2018-11-29T05:17:48.414Z,1006.97
2018-11-29T05:18:48.192Z,1006.98
2018-11-29T05:19:48.176Z,1006.95
2018-11-29T05:20:48.159Z,1006.95
2018-11-29T05:21:48.147Z,1007
2018-11-29T05:22:48.119Z,1006.94
2018-11-29T05:23:48.099Z,1006.87
2018-11-29T05:24:48.083Z,1006.83
2018-11-29T05:25:48.063Z,1006.83
2018-11-29T05:26:48.043Z,1006.82
2018-11-29T05:27:48.028Z,1006.79
2018-11-29T05:28:48.004Z,1006.79
2018-11-29T05:29:47.988Z,1006.78
2018-11-29T05:30:47.968Z,1006.77
2018-11-29T05:31:47.948Z,1006.72
2018-11-29T05:32:47.930Z,1006.71
2018-11-29T05:33:47.912Z,1006.69
2018-11-29T05:34:47.893Z,1006.71
2018-11-29T05:35:47.872Z,1006.69
2018-11-29T05:36:47.854Z,1006.73
2018-11-29T05:37:47.835Z,1006.72
2018-11-29T05:38:47.816Z,1006.66
2018-11-29T05:39:47.798Z,1006.68
2018-11-29T05:40:47.786Z,1006.69
2018-11-29T05:41:47.764Z,1006.71
2018-11-29T05:42:47.741Z,1006.76
2018-11-29T05:43:47.726Z,1006.85
2018-11-29T05:44:47.704Z,1006.79
2018-11-29T05:45:47.685Z,1006.77
2018-11-29T05:46:47.668Z,1006.77
2018-11-29T05:47:47.650Z,1006.75
2018-11-29T05:48:47.632Z,1006.71
2018-11-29T05:49:47.614Z,1006.71
2018-11-29T05:50:47.597Z,1006.7
2018-11-29T05:51:47.575Z,1006.68
2018-11-29T05:52:47.557Z,1006.67
2018-11-29T05:53:47.538Z,1006.67
2018-11-29T05:54:47.521Z,1006.68
2018-11-29T05:55:47.503Z,1006.69
2018-11-29T05:56:47.483Z,1006.73
2018-11-29T05:57:47.464Z,1006.74
2018-11-29T05:58:47.446Z,1006.72
2018-11-29T05:59:47.427Z,1006.69
2018-11-29T06:00:47.432Z,1006.66
2018-11-29T06:01:47.390Z,1006.69
2018-11-29T06:02:47.372Z,1006.64
2018-11-29T06:03:47.356Z,1006.62
2018-11-29T06:04:47.340Z,1006.66
2018-11-29T06:05:47.315Z,1006.65
2018-11-29T06:06:47.296Z,1006.67
2018-11-29T06:07:47.283Z,1006.69
2018-11-29T06:08:47.262Z,1006.65
2018-11-29T06:09:47.253Z,1006.67
2018-11-29T06:10:47.224Z,1006.66
2018-11-29T06:11:47.206Z,1006.68
2018-11-29T06:12:47.191Z,1006.65
2018-11-29T06:13:47.172Z,1006.69
2018-11-29T06:14:47.159Z,1006.69
2018-11-29T06:15:47.133Z,1006.7
2018-11-29T06:16:47.113Z,1006.69
2018-11-29T06:17:47.098Z,1006.65
2018-11-29T06:18:47.080Z,1006.66
2018-11-29T06:19:47.060Z,1006.63
2018-11-29T06:20:47.091Z,1006.59
2018-11-29T06:21:47.025Z,1006.61
2018-11-29T06:22:47.006Z,1006.57
2018-11-29T06:23:46.986Z,1006.61
2018-11-29T06:24:46.970Z,1006.63
2018-11-29T06:25:46.950Z,1006.59
2018-11-29T06:26:46.932Z,1006.63
2018-11-29T06:27:46.918Z,1006.62
2018-11-29T06:28:46.895Z,1006.61
2018-11-29T06:29:46.884Z,1006.63
2018-11-29T06:30:46.861Z,1006.64
2018-11-29T06:31:46.841Z,1006.61
2018-11-29T06:32:46.826Z,1006.63
2018-11-29T06:33:46.814Z,1006.64
2018-11-29T06:34:46.794Z,1006.65
2018-11-29T06:35:46.775Z,1006.65
2018-11-29T06:36:46.765Z,1006.64
2018-11-29T06:37:46.743Z,1006.63
2018-11-29T06:38:46.713Z,1006.66
2018-11-29T06:39:46.696Z,1006.64
2018-11-29T06:40:46.677Z,1006.6
2018-11-29T06:41:46.660Z,1006.63
2018-11-29T06:42:46.641Z,1006.62
2018-11-29T06:43:46.622Z,1006.63
2018-11-29T06:44:46.605Z,1006.61
2018-11-29T06:45:46.584Z,1006.61
2018-11-29T06:46:46.568Z,1006.6
2018-11-29T06:47:46.551Z,1006.57
2018-11-29T06:48:46.557Z,1006.55
2018-11-29T06:49:46.512Z,1006.58
2018-11-29T06:50:46.495Z,1006.55
2018-11-29T06:51:46.477Z,1006.56
2018-11-29T06:52:46.460Z,1006.53
2018-11-29T06:53:46.438Z,1006.51
2018-11-29T06:54:46.421Z,1006.47
2018-11-29T06:55:46.403Z,1006.48
2018-11-29T06:56:46.385Z,1006.49
2018-11-29T06:57:46.378Z,1006.51
2018-11-29T06:58:46.350Z,1006.46
2018-11-29T06:59:46.335Z,1006.46
2018-11-29T07:00:46.315Z,1006.44
2018-11-29T07:01:46.299Z,1006.48
2018-11-29T07:02:46.276Z,1006.37
2018-11-29T07:03:46.259Z,1006.43
2018-11-29T07:04:46.239Z,1006.41
2018-11-29T07:05:46.224Z,1006.38
2018-11-29T07:06:46.204Z,1006.37
2018-11-29T07:07:46.185Z,1006.4
2018-11-29T07:08:46.183Z,1006.38
2018-11-29T07:09:46.148Z,1006.36
2018-11-29T07:10:46.136Z,1006.34
2018-11-29T07:11:46.112Z,1006.36
2018-11-29T07:12:46.103Z,1006.38
2018-11-29T07:13:46.077Z,1006.34
2018-11-29T07:14:46.057Z,1006.35
2018-11-29T07:15:46.039Z,1006.34
2018-11-29T07:16:46.024Z,1006.29
2018-11-29T07:17:46.406Z,1006.27
2018-11-29T07:18:45.986Z,1006.34
2018-11-29T07:19:45.968Z,1006.32
2018-11-29T07:20:45.948Z,1006.29
2018-11-29T07:21:45.929Z,1006.29
2018-11-29T07:22:45.912Z,1006.24
2018-11-29T07:23:45.893Z,1006.28
2018-11-29T07:24:45.874Z,1006.24
2018-11-29T07:25:45.859Z,1006.2
2018-11-29T07:26:45.836Z,1006.21
2018-11-29T07:27:45.820Z,1006.2
2018-11-29T07:28:45.801Z,1006.19
2018-11-29T07:29:45.781Z,1006.2
2018-11-29T07:30:45.763Z,1006.17
2018-11-29T07:31:45.747Z,1006.19
2018-11-29T07:32:45.732Z,1006.18
2018-11-29T07:33:45.708Z,1006.2
2018-11-29T07:34:45.691Z,1006.2
2018-11-29T07:35:45.674Z,1006.19
2018-11-29T07:36:45.655Z,1006.18
2018-11-29T07:37:45.635Z,1006.2
2018-11-29T07:38:45.625Z,1006.16
2018-11-29T07:39:45.601Z,1006.2
2018-11-29T07:40:45.581Z,1006.19
2018-11-29T07:41:45.564Z,1006.15
2018-11-29T07:42:45.568Z,1006.2
2018-11-29T07:43:45.530Z,1006.2
2018-11-29T07:44:45.511Z,1006.19
2018-11-29T07:45:45.493Z,1006.16
2018-11-29T07:46:45.474Z,1006.13
2018-11-29T07:47:45.456Z,1006.17
2018-11-29T07:48:45.437Z,1006.14
2018-11-29T07:49:45.419Z,1006.08
2018-11-29T07:50:45.402Z,1006.1
2018-11-29T07:51:45.383Z,1006.11
2018-11-29T07:52:45.366Z,1006.14
2018-11-29T07:53:45.348Z,1006.09
2018-11-29T07:54:45.331Z,1006.08
2018-11-29T07:55:45.313Z,1006.06
2018-11-29T07:56:45.294Z,1006.03
2018-11-29T07:57:45.280Z,1006.03
2018-11-29T07:58:45.257Z,1006.08
2018-11-29T07:59:45.242Z,1006.03
2018-11-29T08:00:45.225Z,1006.04
2018-11-29T08:01:45.205Z,1006.05
2018-11-29T08:02:45.190Z,1006.02
2018-11-29T08:03:45.171Z,1006
2018-11-29T08:04:45.158Z,1006.03
2018-11-29T08:05:45.135Z,1006.04
2018-11-29T08:06:45.115Z,1006
2018-11-29T08:07:47.434Z,1006.02
2018-11-29T08:08:45.080Z,1005.97
2018-11-29T08:09:45.062Z,1005.99
2018-11-29T08:10:45.046Z,1005.98
2018-11-29T08:11:45.025Z,1005.98
2018-11-29T08:12:45.010Z,1005.97
2018-11-29T08:13:45.008Z,1006.01
2018-11-29T08:14:44.974Z,1006.02
2018-11-29T08:15:44.956Z,1005.99
2018-11-29T08:16:44.941Z,1005.96
2018-11-29T08:17:44.920Z,1006
2018-11-29T08:18:44.905Z,1005.99
2018-11-29T08:19:44.887Z,1005.97
2018-11-29T08:20:44.881Z,1005.98
2018-11-29T08:21:44.848Z,1005.98
2018-11-29T08:22:44.832Z,1005.99
2018-11-29T08:23:44.814Z,1005.95
2018-11-29T08:24:44.795Z,1005.96
2018-11-29T08:25:44.779Z,1005.93
2018-11-29T08:26:44.760Z,1006
2018-11-29T08:27:44.745Z,1005.93
2018-11-29T08:28:44.725Z,1005.93
2018-11-29T08:29:44.708Z,1005.92
2018-11-29T08:30:44.690Z,1005.93
2018-11-29T08:31:44.671Z,1005.91
2018-11-29T08:32:44.653Z,1005.89
2018-11-29T08:33:44.637Z,1005.9
2018-11-29T08:34:44.623Z,1005.85
2018-11-29T08:35:44.599Z,1005.87
2018-11-29T08:36:44.581Z,1005.89
2018-11-29T08:37:44.565Z,1005.91
2018-11-29T08:38:44.548Z,1005.92
2018-11-29T08:39:44.529Z,1005.94
2018-11-29T08:40:44.513Z,1005.92
2018-11-29T08:41:44.497Z,1005.89
2018-11-29T08:42:44.475Z,1005.94
2018-11-29T08:43:44.461Z,1005.97
2018-11-29T08:44:44.446Z,1005.97
2018-11-29T08:45:44.425Z,1006.01
2018-11-29T08:46:44.405Z,1006.02
2018-11-29T08:47:44.403Z,1006.03
2018-11-29T08:48:44.387Z,1006.03
2018-11-29T08:49:44.353Z,1006.03
2018-11-29T08:50:44.335Z,1005.98
2018-11-29T08:51:44.337Z,1005.95
2018-11-29T08:52:44.305Z,1005.94
2018-11-29T08:53:44.281Z,1005.93
2018-11-29T08:54:44.265Z,1005.91
2018-11-29T08:55:44.247Z,1005.91
2018-11-29T08:56:44.234Z,1005.86
2018-11-29T08:57:44.211Z,1005.83
2018-11-29T08:58:44.194Z,1005.81
2018-11-29T08:59:44.177Z,1005.83
2018-11-29T09:00:44.160Z,1005.76
2018-11-29T09:01:44.141Z,1005.78
2018-11-29T09:02:44.127Z,1005.77
2018-11-29T09:03:44.106Z,1005.75
2018-11-29T09:04:44.092Z,1005.76
2018-11-29T09:05:44.071Z,1005.74
2018-11-29T09:06:44.055Z,1005.81
2018-11-29T09:07:44.036Z,1005.82
2018-11-29T09:08:44.020Z,1005.86
2018-11-29T09:09:44.002Z,1005.84
2018-11-29T09:10:43.984Z,1005.85
2018-11-29T09:11:45.361Z,1005.84
2018-11-29T09:12:43.949Z,1005.86
2018-11-29T09:13:43.932Z,1005.81
2018-11-29T09:14:43.914Z,1005.86
2018-11-29T09:15:43.901Z,1005.82
2018-11-29T09:16:43.903Z,1005.81
2018-11-29T09:17:43.864Z,1005.83
2018-11-29T09:18:43.846Z,1005.81
2018-11-29T09:19:43.831Z,1005.88
2018-11-29T09:20:43.814Z,1005.84
2018-11-29T09:21:43.794Z,1005.9
2018-11-29T09:22:43.779Z,1005.93
2018-11-29T09:23:43.762Z,1005.93
2018-11-29T09:24:43.741Z,1005.95
2018-11-29T09:25:43.726Z,1006.02
2018-11-29T09:26:43.709Z,1006.01
2018-11-29T09:27:43.692Z,1006.01
2018-11-29T09:28:43.674Z,1006.05
2018-11-29T09:29:43.659Z,1006.05
2018-11-29T09:30:43.639Z,1006.09
2018-11-29T09:31:43.622Z,1006.1
2018-11-29T09:32:43.605Z,1006.11
2018-11-29T09:33:43.588Z,1006.13
2018-11-29T09:34:43.574Z,1006.18
2018-11-29T09:35:43.555Z,1006.19
2018-11-29T09:36:43.541Z,1006.2
2018-11-29T09:37:43.519Z,1006.19
2018-11-29T09:38:43.503Z,1006.22
2018-11-29T09:39:43.487Z,1006.19
2018-11-29T09:40:43.470Z,1006.19
2018-11-29T09:41:43.452Z,1006.15
2018-11-29T09:42:43.440Z,1006.09
2018-11-29T09:43:43.423Z,1006.06
2018-11-29T09:44:43.401Z,1006.11
2018-11-29T09:45:43.384Z,1006.09
2018-11-29T09:46:43.368Z,1005.99
2018-11-29T09:47:43.351Z,1006.13
2018-11-29T09:48:43.336Z,1006.09
2018-11-29T09:49:43.322Z,1006.11
2018-11-29T09:50:43.305Z,1006.16
2018-11-29T09:51:43.285Z,1006.16
2018-11-29T09:52:43.268Z,1006.15
2018-11-29T09:53:43.253Z,1006.08
2018-11-29T09:54:43.232Z,1006.11
2018-11-29T09:55:43.215Z,1006.07
2018-11-29T09:56:43.198Z,1006.12
2018-11-29T09:57:43.182Z,1006.06
2018-11-29T09:58:43.164Z,1006.03
2018-11-29T09:59:43.148Z,1005.95
2018-11-29T10:00:43.133Z,1006.01
2018-11-29T10:01:43.114Z,1006.03
2018-11-29T10:02:43.097Z,1005.97
2018-11-29T10:03:43.076Z,1005.93
2018-11-29T10:04:43.706Z,1005.95
2018-11-29T10:05:43.043Z,1005.98
2018-11-29T10:06:43.040Z,1005.91
2018-11-29T10:07:43.016Z,1005.86
2018-11-29T10:08:42.992Z,1005.87
2018-11-29T10:09:42.975Z,1005.8
2018-11-29T10:10:42.960Z,1005.88
2018-11-29T10:11:42.942Z,1005.87
2018-11-29T10:12:42.923Z,1005.86
2018-11-29T10:13:46.118Z,1005.85
2018-11-29T10:14:42.967Z,1005.83
2018-11-29T10:15:42.871Z,1005.79
2018-11-29T10:16:42.860Z,1005.84
2018-11-29T10:17:42.846Z,1005.74
2018-11-29T10:18:42.821Z,1005.71
2018-11-29T10:19:42.808Z,1005.77
2018-11-29T10:20:42.789Z,1005.81
2018-11-29T10:21:42.772Z,1005.74
2018-11-29T10:22:42.752Z,1005.74
2018-11-29T10:23:42.736Z,1005.74
2018-11-29T10:24:42.720Z,1005.72
2018-11-29T10:25:42.701Z,1005.81
2018-11-29T10:26:42.685Z,1005.68
2018-11-29T10:27:42.667Z,1005.7
2018-11-29T10:28:42.650Z,1005.71
2018-11-29T10:29:42.632Z,1005.77
2018-11-29T10:30:42.619Z,1005.71
2018-11-29T10:31:42.599Z,1005.71
2018-11-29T10:32:42.580Z,1005.73
2018-11-29T10:33:42.565Z,1005.71
2018-11-29T10:34:42.548Z,1005.68
2018-11-29T10:35:42.672Z,1005.66
2018-11-29T10:36:42.514Z,1005.62
2018-11-29T10:37:42.499Z,1005.58
2018-11-29T10:38:42.483Z,1005.58
2018-11-29T10:39:42.463Z,1005.58
2018-11-29T10:40:42.447Z,1005.55
2018-11-29T10:41:42.435Z,1005.5
2018-11-29T10:42:42.417Z,1005.51
2018-11-29T10:43:42.401Z,1005.47
2018-11-29T10:44:42.381Z,1005.47
2018-11-29T10:45:42.364Z,1005.44
2018-11-29T10:46:42.349Z,1005.4
2018-11-29T10:47:42.334Z,1005.34
2018-11-29T10:48:42.315Z,1005.4
2018-11-29T10:49:42.298Z,1005.31
2018-11-29T10:50:42.354Z,1005.33
2018-11-29T10:51:42.262Z,1005.22
2018-11-29T10:52:42.248Z,1005.17
2018-11-29T10:53:42.229Z,1005.19
2018-11-29T10:54:42.211Z,1005.15
2018-11-29T10:55:42.196Z,1005.12
2018-11-29T10:56:42.185Z,1005.13
2018-11-29T10:57:42.161Z,1005.08
2018-11-29T10:58:42.145Z,1005.08
2018-11-29T10:59:42.129Z,1005.05
2018-11-29T11:00:42.115Z,1005.03
2018-11-29T11:01:42.096Z,1005
2018-11-29T11:02:42.076Z,1005.05
2018-11-29T11:03:42.069Z,1005.03
2018-11-29T11:04:42.046Z,1005
2018-11-29T11:05:42.029Z,1004.96
2018-11-29T11:06:42.011Z,1004.93
2018-11-29T11:07:41.993Z,1004.86
2018-11-29T11:08:41.979Z,1004.85
2018-11-29T11:09:41.959Z,1004.83
2018-11-29T11:10:41.945Z,1004.81
2018-11-29T11:11:41.928Z,1004.82
2018-11-29T11:12:41.912Z,1004.8
2018-11-29T11:13:41.897Z,1004.79
2018-11-29T11:14:41.877Z,1004.82
2018-11-29T11:15:41.862Z,1004.88
2018-11-29T11:16:41.857Z,1004.89
2018-11-29T11:17:41.825Z,1004.95
2018-11-29T11:18:42.012Z,1004.9
2018-11-29T11:19:41.791Z,1004.97
2018-11-29T11:20:41.784Z,1004.92
2018-11-29T11:21:41.762Z,1004.94
2018-11-29T11:22:41.741Z,1004.84
2018-11-29T11:23:41.764Z,1004.79
2018-11-29T11:24:41.706Z,1004.8
2018-11-29T11:25:41.690Z,1004.72
2018-11-29T11:26:41.675Z,1004.59
2018-11-29T11:27:41.658Z,1004.57
2018-11-29T11:28:41.651Z,1004.45
2018-11-29T11:29:41.622Z,1004.39
2018-11-29T11:30:41.607Z,1004.37
2018-11-29T11:31:41.638Z,1004.31
2018-11-29T11:32:41.577Z,1004.31
2018-11-29T11:33:41.554Z,1004.33
2018-11-29T11:34:41.538Z,1004.22
2018-11-29T11:35:41.526Z,1004.27
2018-11-29T11:36:41.506Z,1004.25
2018-11-29T11:37:41.493Z,1004.27
2018-11-29T11:38:41.472Z,1004.17
2018-11-29T11:39:41.454Z,1004.21
2018-11-29T11:40:41.436Z,1004.24
2018-11-29T11:41:41.423Z,1004.24
2018-11-29T11:42:41.406Z,1004.26
2018-11-29T11:43:41.559Z,1004.27
2018-11-29T11:44:41.371Z,1004.34
2018-11-29T11:45:41.361Z,1004.36
2018-11-29T11:46:41.337Z,1004.35
2018-11-29T11:47:41.325Z,1004.41
2018-11-29T11:48:41.308Z,1004.4
2018-11-29T11:49:41.291Z,1004.39
2018-11-29T11:50:41.277Z,1004.39
2018-11-29T11:51:41.257Z,1004.4
2018-11-29T11:52:41.239Z,1004.4
2018-11-29T11:53:41.226Z,1004.48
2018-11-29T11:54:41.206Z,1004.51
2018-11-29T11:55:41.189Z,1004.58
2018-11-29T11:56:41.173Z,1004.67
2018-11-29T11:57:41.157Z,1004.75
2018-11-29T11:58:41.140Z,1004.8
2018-11-29T11:59:41.126Z,1004.78
2018-11-29T12:00:41.108Z,1004.74
2018-11-29T12:01:41.090Z,1004.72
2018-11-29T12:02:41.075Z,1004.72
2018-11-29T12:03:41.058Z,1004.76
2018-11-29T12:04:41.044Z,1004.65
2018-11-29T12:05:41.040Z,1004.65
2018-11-29T12:06:41.016Z,1004.62
2018-11-29T12:07:40.993Z,1004.58
2018-11-29T12:08:40.976Z,1004.53